sensor_id;sensor_type;location;lat;lon;timestamp;P1;durP1;ratioP1;P2;durP2;ratioP2
2175;SDS011;1094;49.902;10.876;2022-11-20T00:01:51;38.87;;;20.83;;
2175;SDS011;1094;49.902;10.876;2022-11-20T00:04:17;35.53;;;20.57;;
2175;SDS011;1094;49.902;10.876;2022-11-20T00:06:43;36.00;;;20.10;;
2175;SDS011;1094;49.902;10.876;2022-11-20T00:09:09;31.83;;;20.00;;
2175;SDS011;1094;49.902;10.876;2022-11-20T00:11:35;38.58;;;20.85;;
2175;SDS011;1094;49.902;10.876;2022-11-20T00:14:01;35.70;;;20.13;;
2175;SDS011;1094;49.902;10.876;2022-11-20T00:16:28;32.15;;;19.83;;
2175;SDS011;1094;49.902;10.876;2022-11-20T00:18:55;35.38;;;19.80;;
2175;SDS011;1094;49.902;10.876;2022-11-20T00:21:27;30.90;;;18.80;;
2175;SDS011;1094;49.902;10.876;2022-11-20T00:23:54;27.67;;;17.58;;
2175;SDS011;1094;49.902;10.876;2022-11-20T00:26:20;35.42;;;18.00;;
2175;SDS011;1094;49.902;10.876;2022-11-20T00:28:49;36.30;;;19.08;;
2175;SDS011;1094;49.902;10.876;2022-11-20T00:31:16;31.15;;;19.48;;
2175;SDS011;1094;49.902;10.876;2022-11-20T00:33:42;27.25;;;17.92;;
2175;SDS011;1094;49.902;10.876;2022-11-20T00:36:09;34.70;;;19.70;;
2175;SDS011;1094;49.902;10.876;2022-11-20T00:38:36;37.00;;;19.80;;
2175;SDS011;1094;49.902;10.876;2022-11-20T00:41:03;31.27;;;18.42;;
2175;SDS011;1094;49.902;10.876;2022-11-20T00:43:29;34.15;;;20.58;;
2175;SDS011;1094;49.902;10.876;2022-11-20T00:45:59;36.57;;;21.20;;
2175;SDS011;1094;49.902;10.876;2022-11-20T00:48:25;35.15;;;19.35;;
2175;SDS011;1094;49.902;10.876;2022-11-20T00:50:51;37.90;;;19.88;;
2175;SDS011;1094;49.902;10.876;2022-11-20T00:53:17;35.95;;;20.15;;
2175;SDS011;1094;49.902;10.876;2022-11-20T00:55:51;32.27;;;20.67;;
2175;SDS011;1094;49.902;10.876;2022-11-20T00:58:17;46.00;;;19.95;;
2175;SDS011;1094;49.902;10.876;2022-11-20T01:00:43;33.90;;;19.73;;
2175;SDS011;1094;49.902;10.876;2022-11-20T01:03:09;38.70;;;20.13;;
2175;SDS011;1094;49.902;10.876;2022-11-20T01:05:35;35.73;;;19.20;;
2175;SDS011;1094;49.902;10.876;2022-11-20T01:08:01;54.37;;;21.57;;
2175;SDS011;1094;49.902;10.876;2022-11-20T01:10:27;36.20;;;20.40;;
2175;SDS011;1094;49.902;10.876;2022-11-20T01:12:53;37.73;;;21.37;;
2175;SDS011;1094;49.902;10.876;2022-11-20T01:15:39;37.95;;;21.30;;
2175;SDS011;1094;49.902;10.876;2022-11-20T01:18:05;37.00;;;19.17;;
2175;SDS011;1094;49.902;10.876;2022-11-20T01:20:34;32.23;;;20.53;;
2175;SDS011;1094;49.902;10.876;2022-11-20T01:23:00;34.40;;;20.25;;
2175;SDS011;1094;49.902;10.876;2022-11-20T01:25:27;35.30;;;20.00;;
2175;SDS011;1094;49.902;10.876;2022-11-20T01:27:53;40.40;;;20.93;;
2175;SDS011;1094;49.902;10.876;2022-11-20T01:30:19;35.43;;;19.60;;
2175;SDS011;1094;49.902;10.876;2022-11-20T01:32:45;39.20;;;20.80;;
2175;SDS011;1094;49.902;10.876;2022-11-20T01:35:10;36.70;;;20.03;;
2175;SDS011;1094;49.902;10.876;2022-11-20T01:37:36;36.53;;;21.50;;
2175;SDS011;1094;49.902;10.876;2022-11-20T01:40:02;31.70;;;19.13;;
2175;SDS011;1094;49.902;10.876;2022-11-20T01:42:28;32.15;;;21.10;;
2175;SDS011;1094;49.902;10.876;2022-11-20T01:47:58;32.67;;;18.85;;
2175;SDS011;1094;49.902;10.876;2022-11-20T01:50:25;33.27;;;20.27;;
2175;SDS011;1094;49.902;10.876;2022-11-20T01:52:54;33.65;;;19.30;;
2175;SDS011;1094;49.902;10.876;2022-11-20T01:55:41;34.70;;;21.08;;
2175;SDS011;1094;49.902;10.876;2022-11-20T01:58:07;38.00;;;20.27;;
2175;SDS011;1094;49.902;10.876;2022-11-20T02:00:34;35.13;;;22.50;;
2175;SDS011;1094;49.902;10.876;2022-11-20T02:03:01;31.27;;;18.05;;
2175;SDS011;1094;49.902;10.876;2022-11-20T02:05:33;29.52;;;18.45;;
2175;SDS011;1094;49.902;10.876;2022-11-20T02:07:59;38.58;;;21.33;;
2175;SDS011;1094;49.902;10.876;2022-11-20T02:10:26;31.83;;;19.73;;
2175;SDS011;1094;49.902;10.876;2022-11-20T02:12:52;34.13;;;21.17;;
2175;SDS011;1094;49.902;10.876;2022-11-20T02:15:37;36.15;;;19.98;;
2175;SDS011;1094;49.902;10.876;2022-11-20T02:18:03;37.13;;;19.07;;
2175;SDS011;1094;49.902;10.876;2022-11-20T02:20:30;32.40;;;19.67;;
2175;SDS011;1094;49.902;10.876;2022-11-20T02:22:57;34.05;;;19.50;;
2175;SDS011;1094;49.902;10.876;2022-11-20T02:25:24;30.95;;;18.88;;
2175;SDS011;1094;49.902;10.876;2022-11-20T02:27:51;33.17;;;19.42;;
2175;SDS011;1094;49.902;10.876;2022-11-20T02:30:17;35.85;;;20.70;;
2175;SDS011;1094;49.902;10.876;2022-11-20T02:32:43;31.63;;;18.45;;
2175;SDS011;1094;49.902;10.876;2022-11-20T02:35:38;30.15;;;19.52;;
2175;SDS011;1094;49.902;10.876;2022-11-20T02:37:57;39.75;;;21.20;;
2175;SDS011;1094;49.902;10.876;2022-11-20T02:40:23;38.05;;;20.35;;
2175;SDS011;1094;49.902;10.876;2022-11-20T02:42:53;29.50;;;18.75;;
2175;SDS011;1094;49.902;10.876;2022-11-20T02:45:19;31.95;;;19.30;;
2175;SDS011;1094;49.902;10.876;2022-11-20T02:47:45;27.75;;;17.08;;
2175;SDS011;1094;49.902;10.876;2022-11-20T02:50:11;33.80;;;17.93;;
2175;SDS011;1094;49.902;10.876;2022-11-20T02:52:37;36.72;;;20.10;;
2175;SDS011;1094;49.902;10.876;2022-11-20T02:55:03;33.23;;;20.73;;
2175;SDS011;1094;49.902;10.876;2022-11-20T02:57:29;33.95;;;19.08;;
2175;SDS011;1094;49.902;10.876;2022-11-20T02:59:55;33.13;;;20.23;;
2175;SDS011;1094;49.902;10.876;2022-11-20T03:02:21;29.90;;;18.87;;
2175;SDS011;1094;49.902;10.876;2022-11-20T03:04:47;29.90;;;18.50;;
2175;SDS011;1094;49.902;10.876;2022-11-20T03:07:13;33.33;;;19.90;;
2175;SDS011;1094;49.902;10.876;2022-11-20T03:09:39;28.93;;;18.00;;
2175;SDS011;1094;49.902;10.876;2022-11-20T03:12:05;31.73;;;18.73;;
2175;SDS011;1094;49.902;10.876;2022-11-20T03:14:31;29.23;;;18.20;;
2175;SDS011;1094;49.902;10.876;2022-11-20T03:16:57;30.27;;;17.50;;
2175;SDS011;1094;49.902;10.876;2022-11-20T03:19:23;33.93;;;20.47;;
2175;SDS011;1094;49.902;10.876;2022-11-20T03:21:49;30.02;;;19.45;;
2175;SDS011;1094;49.902;10.876;2022-11-20T03:24:15;29.10;;;18.53;;
2175;SDS011;1094;49.902;10.876;2022-11-20T03:26:41;32.83;;;19.00;;
2175;SDS011;1094;49.902;10.876;2022-11-20T03:29:07;31.97;;;19.30;;
2175;SDS011;1094;49.902;10.876;2022-11-20T03:31:34;27.77;;;18.60;;
2175;SDS011;1094;49.902;10.876;2022-11-20T03:34:00;35.80;;;19.45;;
2175;SDS011;1094;49.902;10.876;2022-11-20T03:36:27;32.55;;;18.92;;
2175;SDS011;1094;49.902;10.876;2022-11-20T03:38:53;35.20;;;18.63;;
2175;SDS011;1094;49.902;10.876;2022-11-20T03:41:20;37.60;;;19.88;;
2175;SDS011;1094;49.902;10.876;2022-11-20T03:43:50;36.90;;;20.20;;
2175;SDS011;1094;49.902;10.876;2022-11-20T03:46:16;28.17;;;18.25;;
2175;SDS011;1094;49.902;10.876;2022-11-20T03:48:42;30.67;;;17.75;;
2175;SDS011;1094;49.902;10.876;2022-11-20T03:51:10;31.73;;;18.83;;
2175;SDS011;1094;49.902;10.876;2022-11-20T03:53:36;30.60;;;18.55;;
2175;SDS011;1094;49.902;10.876;2022-11-20T03:56:02;30.57;;;19.70;;
2175;SDS011;1094;49.902;10.876;2022-11-20T03:58:28;39.08;;;20.20;;
2175;SDS011;1094;49.902;10.876;2022-11-20T04:00:54;33.88;;;19.63;;
2175;SDS011;1094;49.902;10.876;2022-11-20T04:03:20;29.90;;;18.35;;
2175;SDS011;1094;49.902;10.876;2022-11-20T04:05:46;31.77;;;18.27;;
2175;SDS011;1094;49.902;10.876;2022-11-20T04:08:12;32.40;;;18.30;;
2175;SDS011;1094;49.902;10.876;2022-11-20T04:10:38;35.90;;;20.20;;
2175;SDS011;1094;49.902;10.876;2022-11-20T04:13:04;33.77;;;19.00;;
2175;SDS011;1094;49.902;10.876;2022-11-20T04:15:30;32.80;;;19.70;;
2175;SDS011;1094;49.902;10.876;2022-11-20T04:17:56;33.03;;;17.52;;
2175;SDS011;1094;49.902;10.876;2022-11-20T04:20:22;34.07;;;19.93;;
2175;SDS011;1094;49.902;10.876;2022-11-20T04:22:48;28.80;;;18.10;;
2175;SDS011;1094;49.902;10.876;2022-11-20T04:25:14;35.53;;;19.90;;
2175;SDS011;1094;49.902;10.876;2022-11-20T04:27:40;36.07;;;20.50;;
2175;SDS011;1094;49.902;10.876;2022-11-20T04:30:06;32.23;;;18.70;;
2175;SDS011;1094;49.902;10.876;2022-11-20T04:32:32;36.17;;;19.35;;
2175;SDS011;1094;49.902;10.876;2022-11-20T04:34:58;31.10;;;18.13;;
2175;SDS011;1094;49.902;10.876;2022-11-20T04:37:24;33.47;;;18.60;;
2175;SDS011;1094;49.902;10.876;2022-11-20T04:39:50;30.47;;;18.87;;
2175;SDS011;1094;49.902;10.876;2022-11-20T04:42:16;31.20;;;19.30;;
2175;SDS011;1094;49.902;10.876;2022-11-20T04:44:54;27.80;;;18.17;;
2175;SDS011;1094;49.902;10.876;2022-11-20T04:47:20;29.77;;;18.42;;
2175;SDS011;1094;49.902;10.876;2022-11-20T04:49:46;34.67;;;19.42;;
2175;SDS011;1094;49.902;10.876;2022-11-20T04:52:12;30.20;;;18.67;;
2175;SDS011;1094;49.902;10.876;2022-11-20T04:54:38;33.45;;;19.90;;
2175;SDS011;1094;49.902;10.876;2022-11-20T04:57:04;29.57;;;17.37;;
2175;SDS011;1094;49.902;10.876;2022-11-20T04:59:30;33.60;;;19.90;;
2175;SDS011;1094;49.902;10.876;2022-11-20T05:01:56;33.77;;;19.90;;
2175;SDS011;1094;49.902;10.876;2022-11-20T05:04:22;36.23;;;20.03;;
2175;SDS011;1094;49.902;10.876;2022-11-20T05:06:49;32.95;;;19.42;;
2175;SDS011;1094;49.902;10.876;2022-11-20T05:09:15;32.90;;;19.42;;
2175;SDS011;1094;49.902;10.876;2022-11-20T05:11:41;30.23;;;17.97;;
2175;SDS011;1094;49.902;10.876;2022-11-20T05:14:07;31.88;;;18.63;;
2175;SDS011;1094;49.902;10.876;2022-11-20T05:16:33;33.70;;;18.70;;
2175;SDS011;1094;49.902;10.876;2022-11-20T05:19:00;27.05;;;18.77;;
2175;SDS011;1094;49.902;10.876;2022-11-20T05:21:26;32.60;;;20.23;;
2175;SDS011;1094;49.902;10.876;2022-11-20T05:23:52;38.53;;;20.80;;
2175;SDS011;1094;49.902;10.876;2022-11-20T05:26:20;30.47;;;17.23;;
2175;SDS011;1094;49.902;10.876;2022-11-20T05:28:46;34.65;;;20.27;;
2175;SDS011;1094;49.902;10.876;2022-11-20T05:31:13;31.02;;;18.77;;
2175;SDS011;1094;49.902;10.876;2022-11-20T05:33:40;32.38;;;18.45;;
2175;SDS011;1094;49.902;10.876;2022-11-20T05:36:06;37.42;;;20.42;;
2175;SDS011;1094;49.902;10.876;2022-11-20T05:38:33;33.78;;;20.40;;
2175;SDS011;1094;49.902;10.876;2022-11-20T05:41:09;26.35;;;17.90;;
2175;SDS011;1094;49.902;10.876;2022-11-20T05:43:36;34.40;;;19.75;;
2175;SDS011;1094;49.902;10.876;2022-11-20T05:46:03;31.25;;;19.90;;
2175;SDS011;1094;49.902;10.876;2022-11-20T05:48:29;30.40;;;18.38;;
2175;SDS011;1094;49.902;10.876;2022-11-20T05:50:59;37.40;;;19.25;;
2175;SDS011;1094;49.902;10.876;2022-11-20T05:53:25;30.85;;;19.00;;
2175;SDS011;1094;49.902;10.876;2022-11-20T05:56:05;35.00;;;19.00;;
2175;SDS011;1094;49.902;10.876;2022-11-20T05:58:31;28.83;;;19.42;;
2175;SDS011;1094;49.902;10.876;2022-11-20T06:01:09;35.05;;;19.25;;
2175;SDS011;1094;49.902;10.876;2022-11-20T06:03:35;30.40;;;17.98;;
2175;SDS011;1094;49.902;10.876;2022-11-20T06:06:02;33.85;;;19.40;;
2175;SDS011;1094;49.902;10.876;2022-11-20T06:08:28;32.05;;;19.17;;
2175;SDS011;1094;49.902;10.876;2022-11-20T06:10:54;30.95;;;18.42;;
2175;SDS011;1094;49.902;10.876;2022-11-20T06:13:20;33.67;;;17.50;;
2175;SDS011;1094;49.902;10.876;2022-11-20T06:15:50;31.70;;;18.63;;
2175;SDS011;1094;49.902;10.876;2022-11-20T06:18:16;34.15;;;19.55;;
2175;SDS011;1094;49.902;10.876;2022-11-20T06:20:45;34.08;;;18.98;;
2175;SDS011;1094;49.902;10.876;2022-11-20T06:23:11;34.08;;;19.00;;
2175;SDS011;1094;49.902;10.876;2022-11-20T06:25:40;34.13;;;18.85;;
2175;SDS011;1094;49.902;10.876;2022-11-20T06:28:06;32.60;;;18.40;;
2175;SDS011;1094;49.902;10.876;2022-11-20T06:30:33;31.42;;;18.55;;
2175;SDS011;1094;49.902;10.876;2022-11-20T06:32:59;30.73;;;18.57;;
2175;SDS011;1094;49.902;10.876;2022-11-20T06:35:25;34.33;;;19.40;;
2175;SDS011;1094;49.902;10.876;2022-11-20T06:37:51;31.67;;;18.67;;
2175;SDS011;1094;49.902;10.876;2022-11-20T06:40:17;31.83;;;19.33;;
2175;SDS011;1094;49.902;10.876;2022-11-20T06:42:43;36.47;;;19.47;;
2175;SDS011;1094;49.902;10.876;2022-11-20T06:45:09;35.10;;;19.95;;
2175;SDS011;1094;49.902;10.876;2022-11-20T06:47:35;31.52;;;19.95;;
2175;SDS011;1094;49.902;10.876;2022-11-20T06:50:01;33.90;;;19.87;;
2175;SDS011;1094;49.902;10.876;2022-11-20T06:52:27;35.87;;;19.87;;
2175;SDS011;1094;49.902;10.876;2022-11-20T06:54:53;34.57;;;18.80;;
2175;SDS011;1094;49.902;10.876;2022-11-20T06:57:19;35.17;;;19.03;;
2175;SDS011;1094;49.902;10.876;2022-11-20T06:59:45;31.00;;;17.60;;
2175;SDS011;1094;49.902;10.876;2022-11-20T07:02:11;32.07;;;19.60;;
2175;SDS011;1094;49.902;10.876;2022-11-20T07:04:38;34.50;;;18.73;;
2175;SDS011;1094;49.902;10.876;2022-11-20T07:07:04;32.05;;;19.52;;
2175;SDS011;1094;49.902;10.876;2022-11-20T07:09:31;33.33;;;19.45;;
2175;SDS011;1094;49.902;10.876;2022-11-20T07:11:57;30.00;;;18.08;;
2175;SDS011;1094;49.902;10.876;2022-11-20T07:14:23;33.80;;;18.03;;
2175;SDS011;1094;49.902;10.876;2022-11-20T07:16:49;29.37;;;18.47;;
2175;SDS011;1094;49.902;10.876;2022-11-20T07:19:15;39.97;;;19.63;;
2175;SDS011;1094;49.902;10.876;2022-11-20T07:21:41;36.00;;;18.00;;
2175;SDS011;1094;49.902;10.876;2022-11-20T07:24:07;30.80;;;19.47;;
2175;SDS011;1094;49.902;10.876;2022-11-20T07:26:33;29.97;;;18.30;;
2175;SDS011;1094;49.902;10.876;2022-11-20T07:28:58;34.93;;;20.30;;
2175;SDS011;1094;49.902;10.876;2022-11-20T07:31:24;29.80;;;19.13;;
2175;SDS011;1094;49.902;10.876;2022-11-20T07:33:50;33.47;;;19.67;;
2175;SDS011;1094;49.902;10.876;2022-11-20T07:36:16;27.77;;;18.70;;
2175;SDS011;1094;49.902;10.876;2022-11-20T07:38:42;29.80;;;18.97;;
2175;SDS011;1094;49.902;10.876;2022-11-20T07:41:08;30.00;;;19.20;;
2175;SDS011;1094;49.902;10.876;2022-11-20T07:43:34;28.27;;;18.70;;
2175;SDS011;1094;49.902;10.876;2022-11-20T07:46:00;35.13;;;19.80;;
2175;SDS011;1094;49.902;10.876;2022-11-20T07:48:26;29.88;;;18.77;;
2175;SDS011;1094;49.902;10.876;2022-11-20T07:50:55;29.60;;;18.85;;
2175;SDS011;1094;49.902;10.876;2022-11-20T07:53:22;26.93;;;16.70;;
2175;SDS011;1094;49.902;10.876;2022-11-20T07:55:48;29.23;;;18.25;;
2175;SDS011;1094;49.902;10.876;2022-11-20T07:58:14;30.23;;;19.17;;
2175;SDS011;1094;49.902;10.876;2022-11-20T08:00:40;28.97;;;19.03;;
2175;SDS011;1094;49.902;10.876;2022-11-20T08:03:07;30.00;;;18.08;;
2175;SDS011;1094;49.902;10.876;2022-11-20T08:05:33;36.25;;;20.13;;
2175;SDS011;1094;49.902;10.876;2022-11-20T08:07:59;34.47;;;20.58;;
2175;SDS011;1094;49.902;10.876;2022-11-20T08:10:25;29.87;;;17.20;;
2175;SDS011;1094;49.902;10.876;2022-11-20T08:12:51;33.15;;;19.55;;
2175;SDS011;1094;49.902;10.876;2022-11-20T08:15:37;31.77;;;20.05;;
2175;SDS011;1094;49.902;10.876;2022-11-20T08:18:07;31.37;;;18.23;;
2175;SDS011;1094;49.902;10.876;2022-11-20T08:20:33;29.60;;;17.67;;
2175;SDS011;1094;49.902;10.876;2022-11-20T08:23:03;34.85;;;20.10;;
2175;SDS011;1094;49.902;10.876;2022-11-20T08:25:33;29.40;;;18.75;;
2175;SDS011;1094;49.902;10.876;2022-11-20T08:28:00;29.08;;;17.15;;
2175;SDS011;1094;49.902;10.876;2022-11-20T08:30:26;30.23;;;18.20;;
2175;SDS011;1094;49.902;10.876;2022-11-20T08:32:52;30.97;;;17.43;;
2175;SDS011;1094;49.902;10.876;2022-11-20T08:35:19;35.80;;;18.90;;
2175;SDS011;1094;49.902;10.876;2022-11-20T08:37:46;30.55;;;18.77;;
2175;SDS011;1094;49.902;10.876;2022-11-20T08:40:12;32.57;;;19.20;;
2175;SDS011;1094;49.902;10.876;2022-11-20T08:42:45;34.63;;;19.40;;
2175;SDS011;1094;49.902;10.876;2022-11-20T08:45:11;30.30;;;18.50;;
2175;SDS011;1094;49.902;10.876;2022-11-20T08:47:37;33.67;;;19.63;;
2175;SDS011;1094;49.902;10.876;2022-11-20T08:50:03;32.57;;;19.77;;
2175;SDS011;1094;49.902;10.876;2022-11-20T08:52:29;31.57;;;18.57;;
2175;SDS011;1094;49.902;10.876;2022-11-20T08:54:54;38.27;;;21.50;;
2175;SDS011;1094;49.902;10.876;2022-11-20T08:57:20;33.00;;;18.60;;
2175;SDS011;1094;49.902;10.876;2022-11-20T08:59:46;32.50;;;19.60;;
2175;SDS011;1094;49.902;10.876;2022-11-20T09:02:12;30.70;;;18.27;;
2175;SDS011;1094;49.902;10.876;2022-11-20T09:04:38;34.47;;;19.07;;
2175;SDS011;1094;49.902;10.876;2022-11-20T09:07:04;32.70;;;19.10;;
2175;SDS011;1094;49.902;10.876;2022-11-20T09:09:30;31.10;;;18.60;;
2175;SDS011;1094;49.902;10.876;2022-11-20T09:11:57;31.70;;;18.88;;
2175;SDS011;1094;49.902;10.876;2022-11-20T09:14:23;32.97;;;19.90;;
2175;SDS011;1094;49.902;10.876;2022-11-20T09:16:54;39.30;;;21.70;;
2175;SDS011;1094;49.902;10.876;2022-11-20T09:19:19;33.30;;;20.30;;
2175;SDS011;1094;49.902;10.876;2022-11-20T09:21:45;30.33;;;19.63;;
2175;SDS011;1094;49.902;10.876;2022-11-20T09:24:11;32.00;;;20.83;;
2175;SDS011;1094;49.902;10.876;2022-11-20T09:26:37;34.80;;;21.80;;
2175;SDS011;1094;49.902;10.876;2022-11-20T09:29:03;31.90;;;21.47;;
2175;SDS011;1094;49.902;10.876;2022-11-20T09:31:29;37.00;;;21.27;;
2175;SDS011;1094;49.902;10.876;2022-11-20T09:33:55;33.27;;;21.40;;
2175;SDS011;1094;49.902;10.876;2022-11-20T09:36:21;29.37;;;20.53;;
2175;SDS011;1094;49.902;10.876;2022-11-20T09:38:47;34.10;;;20.27;;
2175;SDS011;1094;49.902;10.876;2022-11-20T09:41:32;42.97;;;21.47;;
2175;SDS011;1094;49.902;10.876;2022-11-20T09:46:41;40.20;;;22.30;;
2175;SDS011;1094;49.902;10.876;2022-11-20T09:49:21;37.13;;;22.47;;
2175;SDS011;1094;49.902;10.876;2022-11-20T09:51:59;34.90;;;22.33;;
2175;SDS011;1094;49.902;10.876;2022-11-20T09:54:27;36.23;;;21.93;;
2175;SDS011;1094;49.902;10.876;2022-11-20T09:57:02;35.10;;;23.03;;
2175;SDS011;1094;49.902;10.876;2022-11-20T10:05:35;37.10;;;22.03;;
2175;SDS011;1094;49.902;10.876;2022-11-20T10:07:37;32.67;;;20.23;;
2175;SDS011;1094;49.902;10.876;2022-11-20T10:10:04;30.40;;;19.50;;
2175;SDS011;1094;49.902;10.876;2022-11-20T10:15:27;33.33;;;19.53;;
2175;SDS011;1094;49.902;10.876;2022-11-20T10:17:59;36.30;;;22.07;;
2175;SDS011;1094;49.902;10.876;2022-11-20T10:20:30;37.70;;;23.07;;
2175;SDS011;1094;49.902;10.876;2022-11-20T10:23:05;37.77;;;21.20;;
2175;SDS011;1094;49.902;10.876;2022-11-20T10:25:38;41.97;;;21.93;;
2175;SDS011;1094;49.902;10.876;2022-11-20T10:30:43;31.60;;;19.80;;
2175;SDS011;1094;49.902;10.876;2022-11-20T10:33:13;34.40;;;20.90;;
2175;SDS011;1094;49.902;10.876;2022-11-20T10:35:43;29.40;;;19.23;;
2175;SDS011;1094;49.902;10.876;2022-11-20T10:40:57;32.77;;;19.47;;
2175;SDS011;1094;49.902;10.876;2022-11-20T10:43:44;34.97;;;19.97;;
2175;SDS011;1094;49.902;10.876;2022-11-20T10:46:12;38.53;;;22.30;;
2175;SDS011;1094;49.902;10.876;2022-11-20T10:48:39;32.20;;;21.30;;
2175;SDS011;1094;49.902;10.876;2022-11-20T10:56:19;34.57;;;20.80;;
2175;SDS011;1094;49.902;10.876;2022-11-20T10:59:32;37.70;;;21.50;;
2175;SDS011;1094;49.902;10.876;2022-11-20T11:01:39;33.10;;;21.20;;
2175;SDS011;1094;49.902;10.876;2022-11-20T11:04:07;34.07;;;21.57;;
2175;SDS011;1094;49.902;10.876;2022-11-20T11:06:46;37.70;;;22.87;;
2175;SDS011;1094;49.902;10.876;2022-11-20T11:09:19;35.00;;;21.50;;
2175;SDS011;1094;49.902;10.876;2022-11-20T11:11:47;34.60;;;23.03;;
2175;SDS011;1094;49.902;10.876;2022-11-20T11:14:13;43.17;;;23.70;;
2175;SDS011;1094;49.902;10.876;2022-11-20T11:16:50;38.17;;;22.63;;
2175;SDS011;1094;49.902;10.876;2022-11-20T11:19:16;37.60;;;23.80;;
2175;SDS011;1094;49.902;10.876;2022-11-20T11:21:46;39.77;;;23.83;;
2175;SDS011;1094;49.902;10.876;2022-11-20T11:24:26;35.47;;;22.47;;
2175;SDS011;1094;49.902;10.876;2022-11-20T11:26:59;37.87;;;22.43;;
2175;SDS011;1094;49.902;10.876;2022-11-20T11:29:29;31.93;;;22.50;;
2175;SDS011;1094;49.902;10.876;2022-11-20T11:32:08;35.30;;;22.20;;
2175;SDS011;1094;49.902;10.876;2022-11-20T11:34:37;34.87;;;23.30;;
2175;SDS011;1094;49.902;10.876;2022-11-20T11:37:03;39.67;;;22.83;;
2175;SDS011;1094;49.902;10.876;2022-11-20T11:39:30;35.37;;;22.20;;
2175;SDS011;1094;49.902;10.876;2022-11-20T11:41:56;35.37;;;21.30;;
2175;SDS011;1094;49.902;10.876;2022-11-20T11:47:21;32.30;;;20.20;;
2175;SDS011;1094;49.902;10.876;2022-11-20T11:49:48;33.70;;;21.73;;
2175;SDS011;1094;49.902;10.876;2022-11-20T11:52:18;31.57;;;19.37;;
2175;SDS011;1094;49.902;10.876;2022-11-20T11:54:51;31.33;;;21.67;;
2175;SDS011;1094;49.902;10.876;2022-11-20T12:00:08;32.47;;;20.73;;
2175;SDS011;1094;49.902;10.876;2022-11-20T12:13:20;35.37;;;21.80;;
2175;SDS011;1094;49.902;10.876;2022-11-20T12:15:49;34.77;;;22.50;;
2175;SDS011;1094;49.902;10.876;2022-11-20T12:18:16;33.43;;;23.83;;
2175;SDS011;1094;49.902;10.876;2022-11-20T12:20:45;34.67;;;22.10;;
2175;SDS011;1094;49.902;10.876;2022-11-20T12:23:18;35.70;;;22.40;;
2175;SDS011;1094;49.902;10.876;2022-11-20T12:25:50;32.30;;;21.90;;
2175;SDS011;1094;49.902;10.876;2022-11-20T12:28:28;34.80;;;23.30;;
2175;SDS011;1094;49.902;10.876;2022-11-20T12:31:05;34.37;;;21.57;;
2175;SDS011;1094;49.902;10.876;2022-11-20T12:36:07;29.77;;;19.13;;
2175;SDS011;1094;49.902;10.876;2022-11-20T12:43:43;29.83;;;15.90;;
2175;SDS011;1094;49.902;10.876;2022-11-20T12:47:12;27.50;;;18.37;;
2175;SDS011;1094;49.902;10.876;2022-11-20T12:52:06;26.60;;;16.17;;
2175;SDS011;1094;49.902;10.876;2022-11-20T12:57:09;28.40;;;17.27;;
2175;SDS011;1094;49.902;10.876;2022-11-20T13:02:25;26.13;;;15.80;;
2175;SDS011;1094;49.902;10.876;2022-11-20T13:07:27;29.00;;;15.70;;
2175;SDS011;1094;49.902;10.876;2022-11-20T13:09:53;25.60;;;14.80;;
2175;SDS011;1094;49.902;10.876;2022-11-20T13:12:24;20.40;;;14.33;;
2175;SDS011;1094;49.902;10.876;2022-11-20T13:20:16;23.93;;;15.70;;
2175;SDS011;1094;49.902;10.876;2022-11-20T13:22:49;22.77;;;14.37;;
2175;SDS011;1094;49.902;10.876;2022-11-20T13:25:32;23.23;;;14.03;;
2175;SDS011;1094;49.902;10.876;2022-11-20T13:28:43;26.60;;;16.10;;
2175;SDS011;1094;49.902;10.876;2022-11-20T13:30:54;25.90;;;14.33;;
2175;SDS011;1094;49.902;10.876;2022-11-20T13:33:31;27.03;;;16.60;;
2175;SDS011;1094;49.902;10.876;2022-11-20T13:36:19;25.10;;;15.60;;
2175;SDS011;1094;49.902;10.876;2022-11-20T13:38:55;25.77;;;15.27;;
2175;SDS011;1094;49.902;10.876;2022-11-20T13:43:52;29.87;;;16.63;;
2175;SDS011;1094;49.902;10.876;2022-11-20T13:46:19;28.90;;;16.80;;
2175;SDS011;1094;49.902;10.876;2022-11-20T13:48:49;24.40;;;16.20;;
2175;SDS011;1094;49.902;10.876;2022-11-20T13:54:28;24.47;;;15.20;;
2175;SDS011;1094;49.902;10.876;2022-11-20T13:56:39;29.97;;;15.80;;
2175;SDS011;1094;49.902;10.876;2022-11-20T13:59:33;24.53;;;15.73;;
2175;SDS011;1094;49.902;10.876;2022-11-20T14:01:55;29.90;;;18.53;;
2175;SDS011;1094;49.902;10.876;2022-11-20T14:04:26;29.80;;;17.30;;
2175;SDS011;1094;49.902;10.876;2022-11-20T14:06:52;32.50;;;18.00;;
2175;SDS011;1094;49.902;10.876;2022-11-20T14:09:25;31.27;;;18.03;;
2175;SDS011;1094;49.902;10.876;2022-11-20T14:11:51;31.90;;;19.23;;
2175;SDS011;1094;49.902;10.876;2022-11-20T14:14:18;29.47;;;17.70;;
2175;SDS011;1094;49.902;10.876;2022-11-20T14:16:45;25.87;;;18.07;;
2175;SDS011;1094;49.902;10.876;2022-11-20T14:19:23;27.87;;;16.97;;
2175;SDS011;1094;49.902;10.876;2022-11-20T14:21:54;28.87;;;18.53;;
2175;SDS011;1094;49.902;10.876;2022-11-20T14:24:21;32.70;;;19.27;;
2175;SDS011;1094;49.902;10.876;2022-11-20T14:26:47;27.17;;;15.47;;
2175;SDS011;1094;49.902;10.876;2022-11-20T14:29:14;24.27;;;15.00;;
2175;SDS011;1094;49.902;10.876;2022-11-20T14:31:41;21.20;;;13.83;;
2175;SDS011;1094;49.902;10.876;2022-11-20T14:34:13;21.50;;;14.27;;
2175;SDS011;1094;49.902;10.876;2022-11-20T14:36:40;19.30;;;13.40;;
2175;SDS011;1094;49.902;10.876;2022-11-20T14:39:09;22.60;;;14.70;;
2175;SDS011;1094;49.902;10.876;2022-11-20T14:41:36;20.80;;;13.17;;
2175;SDS011;1094;49.902;10.876;2022-11-20T14:44:02;20.70;;;11.77;;
2175;SDS011;1094;49.902;10.876;2022-11-20T14:46:28;20.90;;;12.20;;
2175;SDS011;1094;49.902;10.876;2022-11-20T14:48:57;19.50;;;11.73;;
2175;SDS011;1094;49.902;10.876;2022-11-20T14:51:27;24.47;;;13.60;;
2175;SDS011;1094;49.902;10.876;2022-11-20T14:53:53;18.93;;;13.57;;
2175;SDS011;1094;49.902;10.876;2022-11-20T14:56:23;20.43;;;12.20;;
2175;SDS011;1094;49.902;10.876;2022-11-20T14:58:56;20.47;;;12.80;;
2175;SDS011;1094;49.902;10.876;2022-11-20T15:01:26;22.90;;;12.43;;
2175;SDS011;1094;49.902;10.876;2022-11-20T15:04:00;24.63;;;14.80;;
2175;SDS011;1094;49.902;10.876;2022-11-20T15:06:26;25.77;;;13.63;;
2175;SDS011;1094;49.902;10.876;2022-11-20T15:08:53;17.77;;;12.23;;
2175;SDS011;1094;49.902;10.876;2022-11-20T15:11:29;20.97;;;13.10;;
2175;SDS011;1094;49.902;10.876;2022-11-20T15:13:55;19.27;;;11.80;;
2175;SDS011;1094;49.902;10.876;2022-11-20T15:16:22;19.37;;;12.87;;
2175;SDS011;1094;49.902;10.876;2022-11-20T15:18:49;22.77;;;12.97;;
2175;SDS011;1094;49.902;10.876;2022-11-20T15:21:16;21.57;;;12.03;;
2175;SDS011;1094;49.902;10.876;2022-11-20T15:23:42;19.47;;;11.87;;
2175;SDS011;1094;49.902;10.876;2022-11-20T15:26:08;18.97;;;11.97;;
2175;SDS011;1094;49.902;10.876;2022-11-20T15:31:02;23.77;;;13.27;;
2175;SDS011;1094;49.902;10.876;2022-11-20T15:33:28;20.20;;;13.00;;
2175;SDS011;1094;49.902;10.876;2022-11-20T15:35:54;25.30;;;13.90;;
2175;SDS011;1094;49.902;10.876;2022-11-20T15:38:20;22.37;;;13.40;;
2175;SDS011;1094;49.902;10.876;2022-11-20T15:40:46;21.27;;;13.03;;
2175;SDS011;1094;49.902;10.876;2022-11-20T15:43:12;20.93;;;12.93;;
2175;SDS011;1094;49.902;10.876;2022-11-20T15:45:39;20.40;;;13.40;;
2175;SDS011;1094;49.902;10.876;2022-11-20T15:48:11;24.70;;;15.60;;
2175;SDS011;1094;49.902;10.876;2022-11-20T15:50:39;28.50;;;16.80;;
2175;SDS011;1094;49.902;10.876;2022-11-20T15:53:07;27.60;;;15.67;;